createdAt,value
2022-08-11T00:01:59.802Z,262.13
2022-08-11T00:04:28.316Z,736.83
2022-08-11T00:06:57.390Z,727.60
2022-08-11T00:09:39.653Z,731.30
2022-08-11T00:12:13.782Z,727.00
2022-08-11T00:14:42.088Z,953.67
2022-08-11T00:17:12.181Z,948.60
2022-08-11T00:20:11.513Z,957.23
2022-08-11T00:22:31.728Z,723.83
2022-08-11T00:25:02.393Z,730.10
2022-08-11T00:27:34.719Z,441.67
2022-08-11T00:30:02.681Z,258.17
2022-08-11T00:32:31.231Z,947.10
2022-08-11T00:35:52.533Z,723.67
2022-08-11T00:37:51.563Z,756.17
2022-08-11T00:40:25.257Z,725.50
2022-08-11T00:43:02.847Z,256.97
2022-08-11T00:45:34.485Z,745.40
2022-08-11T00:48:06.114Z,263.27
2022-08-11T00:50:41.940Z,130.40
2022-08-11T00:53:27.031Z,910.40
2022-08-11T00:56:22.587Z,755.53
2022-08-11T00:59:35.605Z,837.67
2022-08-11T01:02:18.785Z,761.07
2022-08-11T01:05:24.499Z,308.67
2022-08-11T01:08:26.492Z,936.63
2022-08-11T01:11:07.734Z,460.80
2022-08-11T01:14:07.474Z,234.07
2022-08-11T01:16:53.743Z,771.40
2022-08-11T01:20:38.488Z,309.47
2022-08-11T01:23:07.406Z,996.10
2022-08-11T01:26:02.258Z,779.73
2022-08-11T01:28:56.880Z,999.33
2022-08-11T01:31:56.306Z,987.77
2022-08-11T01:34:58.292Z,775.07
2022-08-11T01:38:02.500Z,780.53
2022-08-11T01:40:57.656Z,999.90
2022-08-11T01:44:27.216Z,800.37
2022-08-11T01:46:58.491Z,999.90
2022-08-11T01:50:08.888Z,999.90
2022-08-11T01:52:34.782Z,845.43
2022-08-11T01:55:18.687Z,138.17
2022-08-11T01:57:54.393Z,58.07
2022-08-11T02:00:23.460Z,159.77
2022-08-11T02:03:02.639Z,147.37
2022-08-11T02:05:46.829Z,127.80
2022-08-11T02:08:33.409Z,91.00
2022-08-11T02:11:28.269Z,37.37
2022-08-11T02:14:01.722Z,138.17
2022-08-11T02:16:37.406Z,344.70
2022-08-11T02:19:31.392Z,160.93
2022-08-11T02:22:20.341Z,84.27
2022-08-11T02:25:02.190Z,131.13
2022-08-11T02:27:38.471Z,343.50
2022-08-11T02:30:09.910Z,30.07
2022-08-11T02:32:58.156Z,55.90
2022-08-11T02:35:29.408Z,63.07
2022-08-11T02:38:10.087Z,55.67
2022-08-11T02:40:44.416Z,55.50
2022-08-11T02:43:27.976Z,45.53
2022-08-11T02:46:05.837Z,59.40
2022-08-11T02:48:58.624Z,55.20
2022-08-11T02:51:33.417Z,35.37
2022-08-11T02:54:11.294Z,57.43
2022-08-11T02:56:44.512Z,673.43
2022-08-11T02:59:41.951Z,55.60
2022-08-11T03:02:16.707Z,136.90
2022-08-11T03:04:56.661Z,992.07
2022-08-11T03:07:29.658Z,774.67
2022-08-11T03:10:04.860Z,999.90
2022-08-11T03:12:55.530Z,999.90
2022-08-11T03:15:50.497Z,999.90
2022-08-11T03:18:26.792Z,999.90
2022-08-11T03:21:00.293Z,999.90
2022-08-11T03:23:31.764Z,999.90
2022-08-11T03:26:03.928Z,999.90
2022-08-11T03:28:35.592Z,999.90
2022-08-11T03:31:11.670Z,999.90
2022-08-11T03:34:05.676Z,427.53
2022-08-11T03:37:17.515Z,133.00
2022-08-11T03:39:56.623Z,66.07
2022-08-11T03:42:29.014Z,38.67
2022-08-11T03:45:18.359Z,89.13
2022-08-11T03:47:55.889Z,28.13
2022-08-11T03:50:55.145Z,42.67
2022-08-11T03:53:36.827Z,27.73
2022-08-11T03:56:20.130Z,19.07
2022-08-11T03:59:28.665Z,94.00
2022-08-11T04:02:20.442Z,26.27
2022-08-11T04:05:24.679Z,52.90
2022-08-11T04:08:33.924Z,29.23
2022-08-11T04:11:22.916Z,56.07
2022-08-11T04:14:25.066Z,21.43
2022-08-11T04:17:07.610Z,999.90
2022-08-11T04:20:09.090Z,192.53
2022-08-11T04:23:03.097Z,155.17
2022-08-11T04:25:57.828Z,999.90
2022-08-11T04:28:50.264Z,117.77
2022-08-11T04:31:51.949Z,104.13
2022-08-11T04:34:42.979Z,705.87
2022-08-11T04:37:37.143Z,116.40
2022-08-11T04:40:19.468Z,195.70
2022-08-11T04:43:25.554Z,22.60
2022-08-11T04:46:17.967Z,34.03
2022-08-11T04:49:11.987Z,63.40
2022-08-11T04:52:10.830Z,58.60
2022-08-11T04:55:20.680Z,25.97
2022-08-11T04:58:31.163Z,25.80
2022-08-11T05:01:31.018Z,20.27
2022-08-11T05:04:35.731Z,28.87
2022-08-11T05:07:42.905Z,999.90
2022-08-11T05:10:19.417Z,22.37
2022-08-11T05:12:52.433Z,999.90
2022-08-11T05:15:44.732Z,999.90
2022-08-11T05:18:35.246Z,60.17
2022-08-11T05:21:25.189Z,85.30
2022-08-11T05:24:16.451Z,142.57
2022-08-11T05:27:08.746Z,999.90
2022-08-11T05:30:04.744Z,999.90
2022-08-11T05:33:00.950Z,999.90
2022-08-11T05:36:00.650Z,999.90
2022-08-11T05:38:43.747Z,147.87
2022-08-11T05:41:30.103Z,999.90
2022-08-11T05:44:20.033Z,999.90
2022-08-11T05:47:08.989Z,203.50
2022-08-11T05:49:55.180Z,999.90
2022-08-11T05:52:44.721Z,463.57
2022-08-11T05:55:33.327Z,529.57
2022-08-11T05:58:03.706Z,999.90
2022-08-11T06:00:31.787Z,999.90
2022-08-11T06:03:07.234Z,999.90
2022-08-11T06:05:38.210Z,999.90
2022-08-11T06:08:12.189Z,831.67
2022-08-11T06:10:42.030Z,999.90
2022-08-11T06:13:10.285Z,999.90
2022-08-11T06:15:45.760Z,906.87
2022-08-11T06:18:15.343Z,909.67
2022-08-11T06:20:48.048Z,948.87
2022-08-11T06:23:18.627Z,958.37
2022-08-11T06:25:46.551Z,967.70
2022-08-11T06:28:19.943Z,937.53
2022-08-11T06:30:48.860Z,966.23
2022-08-11T06:33:20.755Z,913.03
2022-08-11T06:35:55.100Z,969.37
2022-08-11T06:38:35.028Z,908.07
2022-08-11T06:41:23.574Z,964.93
2022-08-11T06:43:55.818Z,977.33
2022-08-11T06:46:28.398Z,991.60
2022-08-11T06:48:57.960Z,990.30
2022-08-11T06:51:24.862Z,960.93
2022-08-11T06:54:03.276Z,999.90
2022-08-11T06:57:06.721Z,931.10
2022-08-11T06:59:57.691Z,927.97
2022-08-11T07:02:33.617Z,809.07
2022-08-11T07:05:04.959Z,999.90
2022-08-11T07:08:34.930Z,999.90
2022-08-11T07:11:36.859Z,999.90
2022-08-11T07:14:23.115Z,999.90
2022-08-11T07:16:51.620Z,999.90
2022-08-11T07:19:41.395Z,999.90
2022-08-11T07:22:28.864Z,999.90
2022-08-11T07:25:16.630Z,400.60
2022-08-11T07:28:03.439Z,321.70
2022-08-11T07:30:31.871Z,328.83
2022-08-11T07:33:02.020Z,348.23
2022-08-11T07:35:33.303Z,297.80
2022-08-11T07:38:07.171Z,545.97
2022-08-11T07:40:36.561Z,220.77
2022-08-11T07:43:05.588Z,331.77
2022-08-11T07:45:51.181Z,216.23
2022-08-11T07:48:36.501Z,187.43
2022-08-11T07:51:22.402Z,171.60
2022-08-11T07:53:58.647Z,331.30
2022-08-11T07:56:54.732Z,284.77
2022-08-11T08:00:00.632Z,231.37
2022-08-11T08:02:50.191Z,274.93
2022-08-11T08:05:35.953Z,423.30
2022-08-11T08:08:21.366Z,417.43
2022-08-11T08:11:07.847Z,358.73
2022-08-11T08:13:53.779Z,331.27
2022-08-11T08:16:39.026Z,999.90
2022-08-11T08:19:06.838Z,999.90
2022-08-11T08:21:34.554Z,722.30
2022-08-11T08:24:02.214Z,999.90
2022-08-11T08:26:51.726Z,999.90
2022-08-11T08:29:38.916Z,727.03
2022-08-11T08:32:06.830Z,999.90
2022-08-11T08:34:34.635Z,999.90
2022-08-11T08:37:02.343Z,999.90
2022-08-11T08:39:46.207Z,999.90
2022-08-11T08:42:19.980Z,999.90
2022-08-11T08:44:52.899Z,999.90
2022-08-11T08:47:41.646Z,999.90
2022-08-11T08:50:16.506Z,999.90
2022-08-11T08:52:49.482Z,999.90
2022-08-11T08:55:19.188Z,999.90
2022-08-11T08:57:50.279Z,675.03
2022-08-11T09:00:23.221Z,999.90
2022-08-11T09:02:51.617Z,999.90
2022-08-11T09:05:21.124Z,999.90
2022-08-11T09:07:51.570Z,999.90
2022-08-11T09:10:20.774Z,999.90
2022-08-11T09:12:50.982Z,999.90
2022-08-11T09:15:20.063Z,999.90
2022-08-11T09:17:49.361Z,999.90
2022-08-11T09:20:20.101Z,999.90
2022-08-11T09:26:14.320Z,999.90
2022-08-11T09:28:44.840Z,999.90
2022-08-11T09:31:13.555Z,999.90
2022-08-11T09:33:42.772Z,999.90
2022-08-11T09:36:30.288Z,999.90
2022-08-11T09:39:15.741Z,999.90
2022-08-11T09:42:01.551Z,761.43
2022-08-11T09:44:48.551Z,999.90
2022-08-11T09:47:24.127Z,715.90
2022-08-11T09:49:53.729Z,999.90
2022-08-11T09:52:21.762Z,999.90
2022-08-11T09:54:50.680Z,999.90
2022-08-11T09:57:37.438Z,999.90
2022-08-11T10:00:13.130Z,999.90
2022-08-11T10:02:45.097Z,999.90
2022-08-11T10:05:33.483Z,999.90
2022-08-11T10:08:01.739Z,999.90
2022-08-11T10:10:30.357Z,999.90
2022-08-11T10:13:01.544Z,999.90
2022-08-11T10:15:38.384Z,999.90
2022-08-11T10:18:25.907Z,999.90
2022-08-11T10:20:58.006Z,999.90
2022-08-11T10:24:00.188Z,999.90
2022-08-11T10:26:49.517Z,999.90
2022-08-11T10:29:37.373Z,999.90
2022-08-11T10:32:32.559Z,808.23
2022-08-11T10:35:08.971Z,999.90
2022-08-11T10:38:06.491Z,999.90
2022-08-11T10:40:26.062Z,999.90
2022-08-11T10:43:06.928Z,999.90
2022-08-11T10:45:54.302Z,796.53
2022-08-11T10:48:25.471Z,999.90
2022-08-11T10:51:11.145Z,999.90
2022-08-11T10:53:58.106Z,999.90
2022-08-11T10:56:43.437Z,999.90
2022-08-11T10:59:11.820Z,999.90
2022-08-11T11:01:42.520Z,999.90
2022-08-11T11:04:15.004Z,999.90
2022-08-11T11:06:50.540Z,999.90
2022-08-11T11:09:23.204Z,821.00
2022-08-11T11:12:12.060Z,999.90
2022-08-11T11:14:59.880Z,999.90
2022-08-11T11:17:46.871Z,808.43
2022-08-11T11:20:36.918Z,999.90
2022-08-11T11:23:08.655Z,999.90
2022-08-11T11:26:06.394Z,999.90
2022-08-11T11:28:44.525Z,999.90
2022-08-11T11:31:21.108Z,999.90
2022-08-11T11:34:12.548Z,999.90
2022-08-11T11:36:47.502Z,999.90
2022-08-11T11:39:18.291Z,999.90
2022-08-11T11:41:46.084Z,999.90
2022-08-11T11:44:14.486Z,790.10
2022-08-11T11:46:45.231Z,788.10
2022-08-11T11:49:16.819Z,806.73
2022-08-11T11:51:47.417Z,807.57
2022-08-11T11:54:18.904Z,806.87
2022-08-11T11:56:47.179Z,798.70
2022-08-11T11:59:33.124Z,807.27
2022-08-11T12:02:01.411Z,807.47
2022-08-11T12:04:42.991Z,805.57
2022-08-11T12:07:30.280Z,806.67
2022-08-11T12:09:58.600Z,806.83
2022-08-11T12:12:44.242Z,807.57
2022-08-11T12:15:12.735Z,805.60
2022-08-11T12:17:40.873Z,816.63
2022-08-11T12:20:33.575Z,806.40
2022-08-11T12:23:17.003Z,983.23
2022-08-11T12:26:26.453Z,819.27
2022-08-11T12:28:51.296Z,999.90
2022-08-11T12:31:22.046Z,802.17
2022-08-11T12:33:50.284Z,807.70
2022-08-11T12:36:18.585Z,806.87
2022-08-11T12:38:51.561Z,809.30
2022-08-11T12:41:37.777Z,806.67
2022-08-11T12:44:25.298Z,809.23
2022-08-11T12:46:52.959Z,809.67
2022-08-11T12:49:43.198Z,980.77
2022-08-11T12:52:17.199Z,806.23
2022-08-11T12:54:57.631Z,549.80
2022-08-11T12:57:49.453Z,999.90
2022-08-11T13:00:35.612Z,806.40
2022-08-11T13:03:22.207Z,991.97
2022-08-11T13:05:53.552Z,804.27
2022-08-11T13:08:23.413Z,759.57
2022-08-11T13:11:10.995Z,741.50
2022-08-11T13:13:55.408Z,732.67
2022-08-11T13:16:25.595Z,732.50
2022-08-11T13:18:53.766Z,753.23
2022-08-11T13:21:22.512Z,175.90
2022-08-11T13:24:01.567Z,733.93
2022-08-11T13:26:43.676Z,762.63
2022-08-11T13:29:18.457Z,718.40
2022-08-11T13:31:46.884Z,727.97
2022-08-11T13:34:16.128Z,544.93
2022-08-11T13:36:45.777Z,492.60
2022-08-11T13:39:14.160Z,498.73
2022-08-11T13:41:45.174Z,495.77
2022-08-11T13:44:15.844Z,492.47
2022-08-11T13:46:45.211Z,490.27
2022-08-11T13:49:16.234Z,493.77
2022-08-11T13:51:44.304Z,734.10
2022-08-11T13:54:14.220Z,734.37
2022-08-11T13:56:45.455Z,733.23
2022-08-11T13:59:14.703Z,754.67
2022-08-11T14:02:19.560Z,724.50
2022-08-11T14:04:40.928Z,730.70
2022-08-11T14:07:10.552Z,733.43
2022-08-11T14:09:40.765Z,736.70
2022-08-11T14:12:31.155Z,754.00
2022-08-11T14:15:05.826Z,702.10
2022-08-11T14:17:48.234Z,762.63
2022-08-11T14:20:39.468Z,764.13
2022-08-11T14:23:05.625Z,746.77
2022-08-11T14:26:01.166Z,682.80
2022-08-11T14:28:33.721Z,757.40
2022-08-11T14:31:05.145Z,761.80
2022-08-11T14:33:59.748Z,740.20
2022-08-11T14:36:23.027Z,765.67
2022-08-11T14:38:50.942Z,722.47
2022-08-11T14:41:36.703Z,725.87
2022-08-11T14:44:25.056Z,742.27
2022-08-11T14:47:23.932Z,738.93
2022-08-11T14:50:03.082Z,765.70
2022-08-11T14:52:38.925Z,713.13
2022-08-11T14:55:25.455Z,765.60
2022-08-11T14:57:55.896Z,764.33
2022-08-11T15:00:35.051Z,750.97
2022-08-11T15:03:13.010Z,728.17
2022-08-11T15:05:56.660Z,747.00
2022-08-11T15:08:42.459Z,734.53
2022-08-11T15:11:32.198Z,749.13
2022-08-11T15:14:00.543Z,773.13
2022-08-11T15:16:47.364Z,682.83
2022-08-11T15:19:16.622Z,748.97
2022-08-11T15:22:02.059Z,748.63
2022-08-11T15:24:31.039Z,755.10
2022-08-11T15:27:17.185Z,763.50
2022-08-11T15:30:02.482Z,325.73
2022-08-11T15:32:49.904Z,757.77
2022-08-11T15:35:39.318Z,748.63
2022-08-11T15:38:07.753Z,729.37
2022-08-11T15:41:01.154Z,762.03
2022-08-11T15:43:48.643Z,749.43
2022-08-11T15:46:18.919Z,761.90
2022-08-11T15:48:49.539Z,741.80
2022-08-11T15:51:25.370Z,743.10
2022-08-11T15:53:56.753Z,747.90
2022-08-11T15:56:26.446Z,738.30
2022-08-11T15:59:41.059Z,733.47
2022-08-11T16:02:27.632Z,749.50
2022-08-11T16:04:57.932Z,752.13
2022-08-11T16:07:27.950Z,759.83
2022-08-11T16:10:00.474Z,731.27
2022-08-11T16:12:30.510Z,750.67
2022-08-11T16:15:20.452Z,320.63
2022-08-11T16:17:51.255Z,753.17
2022-08-11T16:20:22.440Z,747.23
2022-08-11T16:23:01.549Z,764.33
2022-08-11T16:27:06.894Z,754.70
2022-08-11T16:28:20.665Z,743.07
2022-08-11T16:30:48.858Z,755.00
2022-08-11T16:33:48.953Z,767.73
2022-08-11T16:36:25.083Z,748.33
2022-08-11T16:38:54.184Z,737.27
2022-08-11T16:41:38.360Z,750.30
2022-08-11T16:44:37.241Z,763.23
2022-08-11T16:47:07.124Z,753.43
2022-08-11T16:49:37.085Z,714.53
2022-08-11T16:52:11.029Z,702.87
2022-08-11T16:54:40.863Z,767.93
2022-08-11T16:57:32.668Z,749.10
2022-08-11T17:00:04.449Z,763.93
2022-08-11T17:02:51.726Z,736.60
2022-08-11T17:05:53.848Z,742.87
2022-08-11T17:08:41.438Z,752.20
2022-08-11T17:11:34.755Z,749.97
2022-08-11T17:14:06.831Z,764.93
2022-08-11T17:16:37.447Z,224.50
2022-08-11T17:19:07.944Z,744.00
2022-08-11T17:22:02.938Z,537.13
2022-08-11T17:24:33.144Z,750.43
2022-08-11T17:27:01.926Z,570.67
2022-08-11T17:29:31.832Z,490.63
2022-08-11T17:32:18.211Z,505.03
2022-08-11T17:35:04.990Z,521.00
2022-08-11T17:37:33.744Z,563.70
2022-08-11T17:40:05.343Z,514.00
2022-08-11T17:42:51.115Z,550.77
2022-08-11T17:45:37.380Z,528.97
2022-08-11T17:48:23.159Z,545.60
2022-08-11T17:50:52.073Z,515.63
2022-08-11T17:53:38.055Z,459.10
2022-08-11T17:56:26.100Z,469.70
2022-08-11T17:59:11.936Z,542.00
2022-08-11T18:01:40.968Z,460.80
2022-08-11T18:04:11.415Z,476.40
2022-08-11T18:06:40.332Z,544.13
2022-08-11T18:09:27.824Z,212.23
2022-08-11T18:12:14.867Z,467.70
2022-08-11T18:15:09.812Z,220.70
2022-08-11T18:17:56.090Z,545.80
2022-08-11T18:20:42.472Z,221.83
2022-08-11T18:23:46.163Z,443.70
2022-08-11T18:26:34.504Z,508.63
2022-08-11T18:29:21.518Z,605.60
2022-08-11T18:32:08.370Z,444.33
2022-08-11T18:34:56.208Z,491.53
2022-08-11T18:37:44.527Z,598.67
2022-08-11T18:40:33.310Z,999.90
2022-08-11T18:43:25.112Z,258.70
2022-08-11T18:46:19.012Z,561.20
2022-08-11T18:49:13.078Z,567.90
2022-08-11T18:52:03.877Z,571.97
2022-08-11T18:54:53.117Z,708.50
2022-08-11T18:57:49.567Z,999.90
2022-08-11T19:00:40.118Z,999.90
2022-08-11T19:03:27.084Z,999.90
2022-08-11T19:06:38.633Z,999.90
2022-08-11T19:09:21.418Z,999.90
2022-08-11T19:12:07.181Z,481.83
2022-08-11T19:14:54.448Z,999.90
2022-08-11T19:17:43.879Z,999.90
2022-08-11T19:20:34.962Z,999.90
2022-08-11T19:23:21.485Z,999.90
2022-08-11T19:26:06.723Z,999.90
2022-08-11T19:28:53.057Z,999.90
2022-08-11T19:31:43.836Z,999.90
2022-08-11T19:34:30.800Z,999.90
2022-08-11T19:37:22.049Z,999.90
2022-08-11T19:40:10.254Z,999.90
2022-08-11T19:42:56.068Z,999.90
2022-08-11T19:45:41.403Z,999.90
2022-08-11T19:48:32.164Z,999.90
2022-08-11T19:51:18.400Z,999.90
2022-08-11T19:54:07.163Z,999.90
2022-08-11T19:56:52.476Z,999.90
2022-08-11T19:59:38.224Z,999.90
2022-08-11T20:02:24.241Z,999.90
2022-08-11T20:05:09.534Z,999.90
2022-08-11T20:07:55.473Z,999.90
2022-08-11T20:10:43.684Z,999.90
2022-08-11T20:13:30.546Z,999.90
2022-08-11T20:16:17.910Z,999.90
2022-08-11T20:19:05.003Z,999.90
2022-08-11T20:21:50.796Z,999.90
2022-08-11T20:24:36.778Z,999.90
2022-08-11T20:27:25.256Z,781.87
2022-08-11T20:30:11.171Z,782.73
2022-08-11T20:32:56.959Z,503.73
2022-08-11T20:35:42.306Z,977.67
2022-08-11T20:38:28.161Z,792.03
2022-08-11T20:41:16.185Z,293.20
2022-08-11T20:44:06.808Z,794.07
2022-08-11T20:46:55.139Z,258.20
2022-08-11T20:49:50.458Z,279.93
2022-08-11T20:52:40.506Z,277.50
2022-08-11T20:55:51.491Z,742.90
2022-08-11T20:59:00.995Z,279.70
2022-08-11T21:01:42.195Z,736.00
2022-08-11T21:04:27.784Z,278.40
2022-08-11T21:07:22.815Z,249.07
2022-08-11T21:10:22.814Z,137.70
2022-08-11T21:13:26.159Z,843.00
2022-08-11T21:16:25.544Z,739.50
2022-08-11T21:19:16.079Z,280.40
2022-08-11T21:22:01.355Z,136.37
2022-08-11T21:24:50.694Z,735.67
2022-08-11T21:27:36.952Z,735.27
2022-08-11T21:30:21.528Z,275.80
2022-08-11T21:33:07.358Z,895.03
2022-08-11T21:35:54.463Z,728.53
2022-08-11T21:38:39.855Z,731.67
2022-08-11T21:41:25.867Z,736.87
2022-08-11T21:44:12.211Z,244.13
2022-08-11T21:46:58.535Z,244.83
2022-08-11T21:49:44.933Z,862.00
2022-08-11T21:52:32.159Z,242.83
2022-08-11T21:55:17.860Z,240.17
2022-08-11T21:58:03.911Z,847.20
2022-08-11T22:00:49.337Z,242.87
2022-08-11T22:03:42.453Z,854.83
2022-08-11T22:06:35.635Z,240.13
2022-08-11T22:09:22.107Z,484.63
2022-08-11T22:12:29.902Z,138.07
2022-08-11T22:15:13.048Z,273.67
2022-08-11T22:17:58.449Z,271.33
2022-08-11T22:20:45.531Z,730.03
2022-08-11T22:23:36.287Z,137.67
2022-08-11T22:26:24.417Z,270.17
2022-08-11T22:29:10.040Z,282.53
2022-08-11T22:31:55.820Z,288.03
2022-08-11T22:34:53.518Z,730.53
2022-08-11T22:37:39.626Z,469.10
2022-08-11T22:40:26.338Z,899.23
2022-08-11T22:43:12.921Z,900.30
2022-08-11T22:45:58.290Z,722.87
2022-08-11T22:48:44.604Z,893.13
2022-08-11T22:51:30.172Z,266.63
2022-08-11T22:54:16.027Z,892.83
2022-08-11T22:57:01.636Z,891.50
2022-08-11T22:59:48.271Z,138.33
2022-08-11T23:02:34.221Z,708.90
2022-08-11T23:05:19.787Z,726.37
2022-08-11T23:08:05.067Z,137.40
2022-08-11T23:10:51.333Z,725.43
2022-08-11T23:13:36.754Z,891.03
2022-08-11T23:16:23.888Z,888.87
2022-08-11T23:19:09.619Z,262.07
2022-08-11T23:21:55.807Z,258.30
2022-08-11T23:24:40.954Z,481.13
2022-08-11T23:27:27.738Z,242.20
2022-08-11T23:30:17.169Z,241.50
2022-08-11T23:33:07.824Z,276.27
2022-08-11T23:35:55.526Z,241.63
2022-08-11T23:38:43.287Z,769.63
2022-08-11T23:41:28.730Z,460.23
2022-08-11T23:44:14.190Z,129.53
2022-08-11T23:47:00.045Z,243.50
2022-08-11T23:49:46.567Z,460.93
2022-08-11T23:52:32.443Z,241.10
2022-08-11T23:55:17.797Z,130.57
2022-08-11T23:58:03.079Z,274.20
